sensor_id;sensor_type;location;lat;lon;timestamp;P1;durP1;ratioP1;P2;durP2;ratioP2
47896;SDS011;39629;51.400;5.494;2023-02-19T00:00:02;17.60;;;9.70;;
47896;SDS011;39629;51.400;5.494;2023-02-19T00:05:13;18.27;;;9.55;;
47896;SDS011;39629;51.400;5.494;2023-02-19T00:10:14;18.88;;;9.43;;
47896;SDS011;39629;51.400;5.494;2023-02-19T00:15:18;20.40;;;10.20;;
47896;SDS011;39629;51.400;5.494;2023-02-19T00:20:19;20.77;;;9.82;;
47896;SDS011;39629;51.400;5.494;2023-02-19T00:25:21;19.67;;;10.30;;
47896;SDS011;39629;51.400;5.494;2023-02-19T00:30:24;21.52;;;9.82;;
47896;SDS011;39629;51.400;5.494;2023-02-19T00:35:25;21.80;;;10.80;;
47896;SDS011;39629;51.400;5.494;2023-02-19T00:40:27;18.88;;;9.85;;
47896;SDS011;39629;51.400;5.494;2023-02-19T00:45:30;21.20;;;10.40;;
47896;SDS011;39629;51.400;5.494;2023-02-19T00:50:34;19.45;;;9.10;;
47896;SDS011;39629;51.400;5.494;2023-02-19T00:55:35;17.85;;;8.05;;
47896;SDS011;39629;51.400;5.494;2023-02-19T01:00:38;17.83;;;7.82;;
47896;SDS011;39629;51.400;5.494;2023-02-19T01:05:40;17.10;;;7.55;;
47896;SDS011;39629;51.400;5.494;2023-02-19T01:10:42;20.10;;;7.43;;
47896;SDS011;39629;51.400;5.494;2023-02-19T01:15:45;12.45;;;6.20;;
47896;SDS011;39629;51.400;5.494;2023-02-19T01:20:46;15.10;;;6.30;;
47896;SDS011;39629;51.400;5.494;2023-02-19T01:25:48;14.18;;;5.70;;
47896;SDS011;39629;51.400;5.494;2023-02-19T01:30:51;17.10;;;5.43;;
47896;SDS011;39629;51.400;5.494;2023-02-19T01:35:53;14.67;;;5.33;;
47896;SDS011;39629;51.400;5.494;2023-02-19T01:40:55;13.25;;;5.22;;
47896;SDS011;39629;51.400;5.494;2023-02-19T01:45:59;14.00;;;6.05;;
47896;SDS011;39629;51.400;5.494;2023-02-19T01:51:02;18.15;;;6.18;;
47896;SDS011;39629;51.400;5.494;2023-02-19T01:56:07;18.30;;;6.22;;
47896;SDS011;39629;51.400;5.494;2023-02-19T02:01:11;18.70;;;6.30;;
47896;SDS011;39629;51.400;5.494;2023-02-19T02:06:14;12.70;;;5.32;;
47896;SDS011;39629;51.400;5.494;2023-02-19T02:11:21;13.23;;;4.90;;
47896;SDS011;39629;51.400;5.494;2023-02-19T02:16:26;14.43;;;5.00;;
47896;SDS011;39629;51.400;5.494;2023-02-19T02:21:41;10.32;;;4.53;;
47896;SDS011;39629;51.400;5.494;2023-02-19T02:27:05;11.00;;;4.78;;
47896;SDS011;39629;51.400;5.494;2023-02-19T02:32:20;12.80;;;5.38;;
47896;SDS011;39629;51.400;5.494;2023-02-19T02:37:27;12.85;;;4.57;;
47896;SDS011;39629;51.400;5.494;2023-02-19T02:42:34;12.77;;;4.90;;
47896;SDS011;39629;51.400;5.494;2023-02-19T02:47:42;12.30;;;4.50;;
47896;SDS011;39629;51.400;5.494;2023-02-19T02:52:47;12.55;;;4.35;;
47896;SDS011;39629;51.400;5.494;2023-02-19T02:58:10;17.13;;;4.78;;
47896;SDS011;39629;51.400;5.494;2023-02-19T03:03:16;13.57;;;4.57;;
47896;SDS011;39629;51.400;5.494;2023-02-19T03:08:21;12.77;;;4.22;;
47896;SDS011;39629;51.400;5.494;2023-02-19T03:13:33;8.45;;;4.13;;
47896;SDS011;39629;51.400;5.494;2023-02-19T03:19:03;14.38;;;4.15;;
47896;SDS011;39629;51.400;5.494;2023-02-19T03:24:29;10.27;;;3.70;;
47896;SDS011;39629;51.400;5.494;2023-02-19T03:29:53;13.93;;;3.78;;
47896;SDS011;39629;51.400;5.494;2023-02-19T03:35:00;18.20;;;3.58;;
47896;SDS011;39629;51.400;5.494;2023-02-19T03:40:07;11.18;;;3.65;;
47896;SDS011;39629;51.400;5.494;2023-02-19T03:50:48;12.65;;;2.50;;
47896;SDS011;39629;51.400;5.494;2023-02-19T03:56:02;8.80;;;2.53;;
47896;SDS011;39629;51.400;5.494;2023-02-19T04:01:12;6.53;;;2.05;;
47896;SDS011;39629;51.400;5.494;2023-02-19T04:06:19;11.65;;;2.45;;
47896;SDS011;39629;51.400;5.494;2023-02-19T04:11:26;10.30;;;2.10;;
47896;SDS011;39629;51.400;5.494;2023-02-19T04:16:36;11.13;;;1.92;;
47896;SDS011;39629;51.400;5.494;2023-02-19T04:21:42;13.68;;;2.22;;
47896;SDS011;39629;51.400;5.494;2023-02-19T04:26:45;9.80;;;2.42;;
47896;SDS011;39629;51.400;5.494;2023-02-19T04:31:47;7.68;;;1.73;;
47896;SDS011;39629;51.400;5.494;2023-02-19T04:36:50;9.88;;;2.50;;
47896;SDS011;39629;51.400;5.494;2023-02-19T04:41:52;10.88;;;2.22;;
47896;SDS011;39629;51.400;5.494;2023-02-19T04:46:53;11.05;;;1.75;;
47896;SDS011;39629;51.400;5.494;2023-02-19T04:51:57;7.18;;;1.88;;
47896;SDS011;39629;51.400;5.494;2023-02-19T04:56:58;7.97;;;2.08;;
47896;SDS011;39629;51.400;5.494;2023-02-19T05:02:00;9.55;;;2.10;;
47896;SDS011;39629;51.400;5.494;2023-02-19T05:07:03;10.02;;;2.20;;
47896;SDS011;39629;51.400;5.494;2023-02-19T05:12:04;12.63;;;2.22;;
47896;SDS011;39629;51.400;5.494;2023-02-19T05:17:06;9.80;;;2.20;;
47896;SDS011;39629;51.400;5.494;2023-02-19T05:22:09;12.73;;;2.10;;
47896;SDS011;39629;51.400;5.494;2023-02-19T05:27:11;8.57;;;2.10;;
47896;SDS011;39629;51.400;5.494;2023-02-19T05:32:12;8.48;;;2.25;;
47896;SDS011;39629;51.400;5.494;2023-02-19T05:37:15;13.75;;;2.70;;
47896;SDS011;39629;51.400;5.494;2023-02-19T05:42:17;10.50;;;2.30;;
47896;SDS011;39629;51.400;5.494;2023-02-19T05:47:19;12.00;;;2.55;;
47896;SDS011;39629;51.400;5.494;2023-02-19T05:52:22;11.77;;;2.33;;
47896;SDS011;39629;51.400;5.494;2023-02-19T05:57:23;14.88;;;2.00;;
47896;SDS011;39629;51.400;5.494;2023-02-19T06:02:25;13.23;;;1.98;;
47896;SDS011;39629;51.400;5.494;2023-02-19T06:07:28;9.82;;;1.88;;
47896;SDS011;39629;51.400;5.494;2023-02-19T06:12:30;7.50;;;1.95;;
47896;SDS011;39629;51.400;5.494;2023-02-19T06:17:32;6.90;;;1.98;;
47896;SDS011;39629;51.400;5.494;2023-02-19T06:22:36;6.55;;;1.52;;
47896;SDS011;39629;51.400;5.494;2023-02-19T06:27:37;9.18;;;1.95;;
47896;SDS011;39629;51.400;5.494;2023-02-19T06:32:39;15.43;;;2.25;;
47896;SDS011;39629;51.400;5.494;2023-02-19T06:37:42;10.20;;;1.75;;
47896;SDS011;39629;51.400;5.494;2023-02-19T06:42:46;9.85;;;2.25;;
47896;SDS011;39629;51.400;5.494;2023-02-19T06:47:48;13.23;;;2.08;;
47896;SDS011;39629;51.400;5.494;2023-02-19T06:52:51;7.50;;;1.90;;
47896;SDS011;39629;51.400;5.494;2023-02-19T06:57:52;10.27;;;1.70;;
47896;SDS011;39629;51.400;5.494;2023-02-19T07:02:54;8.15;;;1.67;;
47896;SDS011;39629;51.400;5.494;2023-02-19T07:07:57;8.82;;;2.42;;
47896;SDS011;39629;51.400;5.494;2023-02-19T07:12:58;10.13;;;2.17;;
47896;SDS011;39629;51.400;5.494;2023-02-19T07:18:00;10.05;;;2.20;;
47896;SDS011;39629;51.400;5.494;2023-02-19T07:23:03;7.43;;;2.20;;
47896;SDS011;39629;51.400;5.494;2023-02-19T07:28:04;8.82;;;1.67;;
47896;SDS011;39629;51.400;5.494;2023-02-19T07:33:06;15.25;;;2.35;;
47896;SDS011;39629;51.400;5.494;2023-02-19T07:38:09;9.48;;;1.92;;
47896;SDS011;39629;51.400;5.494;2023-02-19T07:43:10;8.85;;;2.50;;
47896;SDS011;39629;51.400;5.494;2023-02-19T07:48:12;9.90;;;2.72;;
47896;SDS011;39629;51.400;5.494;2023-02-19T07:53:15;11.60;;;2.67;;
47896;SDS011;39629;51.400;5.494;2023-02-19T07:58:17;9.52;;;2.30;;
47896;SDS011;39629;51.400;5.494;2023-02-19T08:03:18;11.07;;;2.58;;
47896;SDS011;39629;51.400;5.494;2023-02-19T08:08:21;9.95;;;2.30;;
47896;SDS011;39629;51.400;5.494;2023-02-19T08:13:23;11.82;;;2.50;;
47896;SDS011;39629;51.400;5.494;2023-02-19T08:18:26;10.13;;;2.40;;
47896;SDS011;39629;51.400;5.494;2023-02-19T08:23:31;11.40;;;2.70;;
47896;SDS011;39629;51.400;5.494;2023-02-19T08:28:32;8.40;;;2.72;;
47896;SDS011;39629;51.400;5.494;2023-02-19T08:33:34;9.82;;;2.85;;
47896;SDS011;39629;51.400;5.494;2023-02-19T08:38:39;7.90;;;2.92;;
47896;SDS011;39629;51.400;5.494;2023-02-19T08:43:40;10.43;;;2.90;;
47896;SDS011;39629;51.400;5.494;2023-02-19T08:48:42;10.48;;;2.85;;
47896;SDS011;39629;51.400;5.494;2023-02-19T08:53:45;8.85;;;3.28;;
47896;SDS011;39629;51.400;5.494;2023-02-19T08:58:47;13.10;;;3.50;;
47896;SDS011;39629;51.400;5.494;2023-02-19T09:03:49;8.95;;;4.07;;
47896;SDS011;39629;51.400;5.494;2023-02-19T09:08:52;9.55;;;2.97;;
47896;SDS011;39629;51.400;5.494;2023-02-19T09:13:54;6.00;;;2.30;;
47896;SDS011;39629;51.400;5.494;2023-02-19T09:18:56;6.72;;;2.78;;
47896;SDS011;39629;51.400;5.494;2023-02-19T09:23:59;8.02;;;2.67;;
47896;SDS011;39629;51.400;5.494;2023-02-19T09:29:01;13.07;;;2.90;;
47896;SDS011;39629;51.400;5.494;2023-02-19T09:34:02;10.32;;;2.65;;
47896;SDS011;39629;51.400;5.494;2023-02-19T09:39:07;6.53;;;2.15;;
47896;SDS011;39629;51.400;5.494;2023-02-19T09:44:12;9.23;;;2.70;;
47896;SDS011;39629;51.400;5.494;2023-02-19T09:49:17;10.32;;;2.45;;
47896;SDS011;39629;51.400;5.494;2023-02-19T09:54:22;11.40;;;3.17;;
47896;SDS011;39629;51.400;5.494;2023-02-19T09:59:27;10.07;;;2.92;;
47896;SDS011;39629;51.400;5.494;2023-02-19T10:04:31;9.98;;;2.95;;
47896;SDS011;39629;51.400;5.494;2023-02-19T10:09:34;6.93;;;2.67;;
47896;SDS011;39629;51.400;5.494;2023-02-19T10:14:37;6.90;;;2.85;;
47896;SDS011;39629;51.400;5.494;2023-02-19T10:19:41;10.07;;;3.53;;
47896;SDS011;39629;51.400;5.494;2023-02-19T10:24:45;9.48;;;3.95;;
47896;SDS011;39629;51.400;5.494;2023-02-19T10:29:50;12.38;;;4.60;;
47896;SDS011;39629;51.400;5.494;2023-02-19T10:45:20;8.23;;;3.75;;
47896;SDS011;39629;51.400;5.494;2023-02-19T10:50:25;9.85;;;3.95;;
47896;SDS011;39629;51.400;5.494;2023-02-19T10:55:32;9.52;;;4.50;;
47896;SDS011;39629;51.400;5.494;2023-02-19T11:00:35;6.75;;;3.67;;
47896;SDS011;39629;51.400;5.494;2023-02-19T11:05:37;8.00;;;4.00;;
47896;SDS011;39629;51.400;5.494;2023-02-19T11:10:42;7.95;;;4.07;;
47896;SDS011;39629;51.400;5.494;2023-02-19T11:15:49;5.57;;;3.58;;
47896;SDS011;39629;51.400;5.494;2023-02-19T11:20:53;7.07;;;3.08;;
47896;SDS011;39629;51.400;5.494;2023-02-19T11:25:59;6.20;;;2.53;;
47896;SDS011;39629;51.400;5.494;2023-02-19T11:31:12;7.40;;;2.85;;
47896;SDS011;39629;51.400;5.494;2023-02-19T11:36:29;4.90;;;2.40;;
47896;SDS011;39629;51.400;5.494;2023-02-19T11:41:56;6.18;;;2.33;;
47896;SDS011;39629;51.400;5.494;2023-02-19T11:47:43;3.95;;;2.42;;
47896;SDS011;39629;51.400;5.494;2023-02-19T11:53:00;5.20;;;2.13;;
47896;SDS011;39629;51.400;5.494;2023-02-19T11:58:24;6.18;;;1.85;;
47896;SDS011;39629;51.400;5.494;2023-02-19T12:03:46;3.38;;;1.65;;
47896;SDS011;39629;51.400;5.494;2023-02-19T12:09:05;3.67;;;1.85;;
47896;SDS011;39629;51.400;5.494;2023-02-19T12:20:00;4.90;;;1.88;;
47896;SDS011;39629;51.400;5.494;2023-02-19T12:30:54;2.83;;;1.63;;
47896;SDS011;39629;51.400;5.494;2023-02-19T12:36:12;5.15;;;1.70;;
47896;SDS011;39629;51.400;5.494;2023-02-19T12:41:33;4.03;;;1.60;;
47896;SDS011;39629;51.400;5.494;2023-02-19T12:46:42;3.42;;;2.03;;
47896;SDS011;39629;51.400;5.494;2023-02-19T12:51:48;5.40;;;1.77;;
47896;SDS011;39629;51.400;5.494;2023-02-19T12:56:51;4.82;;;1.70;;
47896;SDS011;39629;51.400;5.494;2023-02-19T13:01:59;3.05;;;1.52;;
47896;SDS011;39629;51.400;5.494;2023-02-19T13:07:05;4.40;;;1.63;;
47896;SDS011;39629;51.400;5.494;2023-02-19T13:12:13;4.03;;;1.30;;
47896;SDS011;39629;51.400;5.494;2023-02-19T13:17:23;3.13;;;1.38;;
47896;SDS011;39629;51.400;5.494;2023-02-19T13:22:30;3.40;;;1.38;;
47896;SDS011;39629;51.400;5.494;2023-02-19T13:27:59;2.58;;;1.20;;
47896;SDS011;39629;51.400;5.494;2023-02-19T13:33:17;2.33;;;1.35;;
47896;SDS011;39629;51.400;5.494;2023-02-19T13:38:27;3.67;;;1.50;;
47896;SDS011;39629;51.400;5.494;2023-02-19T13:43:29;3.35;;;1.40;;
47896;SDS011;39629;51.400;5.494;2023-02-19T13:48:36;3.25;;;1.55;;
47896;SDS011;39629;51.400;5.494;2023-02-19T13:53:49;3.90;;;1.58;;
47896;SDS011;39629;51.400;5.494;2023-02-19T13:58:57;1.80;;;1.00;;
47896;SDS011;39629;51.400;5.494;2023-02-19T14:04:07;2.38;;;1.00;;
47896;SDS011;39629;51.400;5.494;2023-02-19T14:14:45;1.10;;;0.40;;
47896;SDS011;39629;51.400;5.494;2023-02-19T14:19:51;1.50;;;0.50;;
47896;SDS011;39629;51.400;5.494;2023-02-19T14:24:54;1.00;;;0.40;;
47896;SDS011;39629;51.400;5.494;2023-02-19T14:29:57;0.97;;;0.40;;
47896;SDS011;39629;51.400;5.494;2023-02-19T14:35:01;1.25;;;0.60;;
47896;SDS011;39629;51.400;5.494;2023-02-19T14:40:05;2.60;;;0.70;;
47896;SDS011;39629;51.400;5.494;2023-02-19T14:45:07;2.13;;;0.90;;
47896;SDS011;39629;51.400;5.494;2023-02-19T14:50:13;1.13;;;0.60;;
47896;SDS011;39629;51.400;5.494;2023-02-19T14:55:22;2.38;;;0.60;;
47896;SDS011;39629;51.400;5.494;2023-02-19T15:00:28;2.17;;;0.90;;
47896;SDS011;39629;51.400;5.494;2023-02-19T15:05:35;2.72;;;1.08;;
47896;SDS011;39629;51.400;5.494;2023-02-19T15:10:37;2.13;;;1.00;;
47896;SDS011;39629;51.400;5.494;2023-02-19T15:15:43;1.95;;;0.90;;
47896;SDS011;39629;51.400;5.494;2023-02-19T15:20:47;3.42;;;0.90;;
47896;SDS011;39629;51.400;5.494;2023-02-19T15:25:49;3.47;;;1.00;;
47896;SDS011;39629;51.400;5.494;2023-02-19T15:31:02;2.35;;;1.00;;
47896;SDS011;39629;51.400;5.494;2023-02-19T15:36:08;1.58;;;1.00;;
47896;SDS011;39629;51.400;5.494;2023-02-19T15:41:15;2.15;;;1.10;;
47896;SDS011;39629;51.400;5.494;2023-02-19T15:46:22;2.53;;;0.80;;
47896;SDS011;39629;51.400;5.494;2023-02-19T15:51:27;3.17;;;0.80;;
47896;SDS011;39629;51.400;5.494;2023-02-19T15:56:41;1.10;;;0.70;;
47896;SDS011;39629;51.400;5.494;2023-02-19T16:01:46;3.70;;;1.00;;
47896;SDS011;39629;51.400;5.494;2023-02-19T16:06:51;1.45;;;0.80;;
47896;SDS011;39629;51.400;5.494;2023-02-19T16:11:56;1.90;;;0.68;;
47896;SDS011;39629;51.400;5.494;2023-02-19T16:17:03;1.50;;;0.70;;
47896;SDS011;39629;51.400;5.494;2023-02-19T16:22:15;3.30;;;1.00;;
47896;SDS011;39629;51.400;5.494;2023-02-19T16:27:28;3.50;;;1.17;;
47896;SDS011;39629;51.400;5.494;2023-02-19T16:32:33;3.15;;;0.95;;
47896;SDS011;39629;51.400;5.494;2023-02-19T16:37:37;2.05;;;0.70;;
47896;SDS011;39629;51.400;5.494;2023-02-19T16:48:23;1.27;;;0.50;;
47896;SDS011;39629;51.400;5.494;2023-02-19T16:53:26;2.63;;;0.70;;
47896;SDS011;39629;51.400;5.494;2023-02-19T16:58:28;3.30;;;0.70;;
47896;SDS011;39629;51.400;5.494;2023-02-19T17:03:30;1.35;;;0.70;;
47896;SDS011;39629;51.400;5.494;2023-02-19T17:08:34;1.27;;;0.60;;
47896;SDS011;39629;51.400;5.494;2023-02-19T17:13:37;1.05;;;0.80;;
47896;SDS011;39629;51.400;5.494;2023-02-19T17:18:39;2.90;;;0.60;;
47896;SDS011;39629;51.400;5.494;2023-02-19T17:23:42;1.10;;;0.60;;
47896;SDS011;39629;51.400;5.494;2023-02-19T17:28:44;1.55;;;0.60;;
47896;SDS011;39629;51.400;5.494;2023-02-19T17:33:46;1.33;;;0.50;;
47896;SDS011;39629;51.400;5.494;2023-02-19T17:38:50;1.08;;;0.60;;
47896;SDS011;39629;51.400;5.494;2023-02-19T17:43:51;3.13;;;0.60;;
47896;SDS011;39629;51.400;5.494;2023-02-19T17:48:53;1.60;;;0.70;;
47896;SDS011;39629;51.400;5.494;2023-02-19T17:53:57;1.77;;;0.70;;
47896;SDS011;39629;51.400;5.494;2023-02-19T17:58:58;4.15;;;0.88;;
47896;SDS011;39629;51.400;5.494;2023-02-19T18:04:00;1.20;;;0.70;;
47896;SDS011;39629;51.400;5.494;2023-02-19T18:09:03;2.08;;;0.88;;
47896;SDS011;39629;51.400;5.494;2023-02-19T18:14:04;1.50;;;0.60;;
47896;SDS011;39629;51.400;5.494;2023-02-19T18:19:06;2.60;;;1.05;;
47896;SDS011;39629;51.400;5.494;2023-02-19T18:24:09;1.52;;;0.90;;
47896;SDS011;39629;51.400;5.494;2023-02-19T18:29:11;2.92;;;1.00;;
47896;SDS011;39629;51.400;5.494;2023-02-19T18:34:16;2.08;;;0.80;;
47896;SDS011;39629;51.400;5.494;2023-02-19T18:39:20;1.85;;;0.80;;
47896;SDS011;39629;51.400;5.494;2023-02-19T18:44:22;2.03;;;0.80;;
47896;SDS011;39629;51.400;5.494;2023-02-19T18:49:25;1.95;;;1.15;;
47896;SDS011;39629;51.400;5.494;2023-02-19T18:54:30;1.47;;;0.70;;
47896;SDS011;39629;51.400;5.494;2023-02-19T18:59:32;3.25;;;0.82;;
47896;SDS011;39629;51.400;5.494;2023-02-19T19:04:35;2.20;;;1.00;;
47896;SDS011;39629;51.400;5.494;2023-02-19T19:09:39;1.98;;;1.10;;
47896;SDS011;39629;51.400;5.494;2023-02-19T19:14:40;1.83;;;1.00;;
47896;SDS011;39629;51.400;5.494;2023-02-19T19:19:42;2.70;;;1.20;;
47896;SDS011;39629;51.400;5.494;2023-02-19T19:24:45;2.80;;;0.80;;
47896;SDS011;39629;51.400;5.494;2023-02-19T19:29:47;2.60;;;1.30;;
47896;SDS011;39629;51.400;5.494;2023-02-19T19:34:48;3.40;;;1.27;;
47896;SDS011;39629;51.400;5.494;2023-02-19T19:39:52;4.03;;;1.33;;
47896;SDS011;39629;51.400;5.494;2023-02-19T19:44:53;2.50;;;1.30;;
47896;SDS011;39629;51.400;5.494;2023-02-19T19:49:56;3.53;;;1.60;;
47896;SDS011;39629;51.400;5.494;2023-02-19T19:54:59;3.45;;;1.70;;
47896;SDS011;39629;51.400;5.494;2023-02-19T20:00:01;3.47;;;1.60;;
47896;SDS011;39629;51.400;5.494;2023-02-19T20:05:12;3.10;;;1.80;;
47896;SDS011;39629;51.400;5.494;2023-02-19T20:10:17;4.38;;;2.00;;
47896;SDS011;39629;51.400;5.494;2023-02-19T20:15:19;4.53;;;2.28;;
47896;SDS011;39629;51.400;5.494;2023-02-19T20:20:22;6.25;;;2.38;;
47896;SDS011;39629;51.400;5.494;2023-02-19T20:25:25;5.90;;;2.45;;
47896;SDS011;39629;51.400;5.494;2023-02-19T20:30:26;7.35;;;3.20;;
47896;SDS011;39629;51.400;5.494;2023-02-19T20:35:28;7.82;;;3.67;;
47896;SDS011;39629;51.400;5.494;2023-02-19T20:40:32;4.68;;;2.47;;
47896;SDS011;39629;51.400;5.494;2023-02-19T20:45:34;3.90;;;2.30;;
47896;SDS011;39629;51.400;5.494;2023-02-19T20:50:36;4.10;;;2.05;;
47896;SDS011;39629;51.400;5.494;2023-02-19T20:55:39;4.28;;;2.05;;
47896;SDS011;39629;51.400;5.494;2023-02-19T21:00:40;4.93;;;2.28;;
47896;SDS011;39629;51.400;5.494;2023-02-19T21:05:42;6.40;;;2.47;;
47896;SDS011;39629;51.400;5.494;2023-02-19T21:10:45;4.10;;;2.55;;
47896;SDS011;39629;51.400;5.494;2023-02-19T21:15:47;4.97;;;2.55;;
47896;SDS011;39629;51.400;5.494;2023-02-19T21:20:48;6.45;;;2.80;;
47896;SDS011;39629;51.400;5.494;2023-02-19T21:25:51;6.93;;;3.28;;
47896;SDS011;39629;51.400;5.494;2023-02-19T21:30:53;6.30;;;2.97;;
47896;SDS011;39629;51.400;5.494;2023-02-19T21:35:54;5.82;;;3.10;;
47896;SDS011;39629;51.400;5.494;2023-02-19T21:40:58;8.07;;;3.85;;
47896;SDS011;39629;51.400;5.494;2023-02-19T21:46:00;7.63;;;3.33;;
47896;SDS011;39629;51.400;5.494;2023-02-19T21:51:02;8.30;;;3.85;;
47896;SDS011;39629;51.400;5.494;2023-02-19T21:56:05;11.80;;;4.82;;
47896;SDS011;39629;51.400;5.494;2023-02-19T22:01:07;13.32;;;4.82;;
47896;SDS011;39629;51.400;5.494;2023-02-19T22:06:08;13.50;;;5.50;;
47896;SDS011;39629;51.400;5.494;2023-02-19T22:11:11;12.15;;;5.40;;
47896;SDS011;39629;51.400;5.494;2023-02-19T22:16:13;13.00;;;5.05;;
47896;SDS011;39629;51.400;5.494;2023-02-19T22:21:15;12.90;;;4.78;;
47896;SDS011;39629;51.400;5.494;2023-02-19T22:26:19;11.32;;;5.10;;
47896;SDS011;39629;51.400;5.494;2023-02-19T22:31:23;9.00;;;4.22;;
47896;SDS011;39629;51.400;5.494;2023-02-19T22:36:26;12.07;;;5.78;;
47896;SDS011;39629;51.400;5.494;2023-02-19T22:41:31;11.80;;;5.30;;
47896;SDS011;39629;51.400;5.494;2023-02-19T22:46:33;10.53;;;5.67;;
47896;SDS011;39629;51.400;5.494;2023-02-19T22:51:35;11.23;;;5.28;;
47896;SDS011;39629;51.400;5.494;2023-02-19T22:56:38;12.65;;;5.50;;
47896;SDS011;39629;51.400;5.494;2023-02-19T23:01:39;12.27;;;6.15;;
47896;SDS011;39629;51.400;5.494;2023-02-19T23:06:41;11.82;;;5.80;;
47896;SDS011;39629;51.400;5.494;2023-02-19T23:11:45;11.85;;;5.55;;
47896;SDS011;39629;51.400;5.494;2023-02-19T23:16:47;16.50;;;5.90;;
47896;SDS011;39629;51.400;5.494;2023-02-19T23:21:49;14.65;;;6.03;;
47896;SDS011;39629;51.400;5.494;2023-02-19T23:26:52;11.20;;;4.90;;
47896;SDS011;39629;51.400;5.494;2023-02-19T23:31:54;8.73;;;4.57;;
47896;SDS011;39629;51.400;5.494;2023-02-19T23:36:55;10.43;;;4.53;;
47896;SDS011;39629;51.400;5.494;2023-02-19T23:41:59;10.75;;;5.50;;
47896;SDS011;39629;51.400;5.494;2023-02-19T23:47:01;10.70;;;5.40;;
47896;SDS011;39629;51.400;5.494;2023-02-19T23:52:03;12.95;;;6.45;;
47896;SDS011;39629;51.400;5.494;2023-02-19T23:57:06;12.52;;;6.60;;
